createdAt,value
2022-11-13T00:01:19.827Z,12.20
2022-11-13T00:03:47.799Z,12.20
2022-11-13T00:06:16.540Z,12.30
2022-11-13T00:08:44.608Z,12.30
2022-11-13T00:11:15.055Z,12.30
2022-11-13T00:13:43.340Z,12.30
2022-11-13T00:16:13.159Z,12.30
2022-11-13T00:18:40.714Z,12.40
2022-11-13T00:21:11.575Z,12.40
2022-11-13T00:23:39.007Z,12.40
2022-11-13T00:26:08.646Z,12.40
2022-11-13T00:28:36.278Z,12.40
2022-11-13T00:31:04.916Z,12.40
2022-11-13T00:34:02.026Z,12.50
2022-11-13T00:36:26.091Z,12.50
2022-11-13T00:38:55.108Z,12.50
2022-11-13T00:41:23.427Z,12.50
2022-11-13T00:43:51.155Z,12.50
2022-11-13T00:46:19.050Z,12.50
2022-11-13T00:48:46.662Z,12.50
2022-11-13T00:51:14.188Z,12.50
2022-11-13T00:53:41.776Z,12.50
2022-11-13T00:56:09.119Z,12.50
2022-11-13T00:58:36.558Z,12.50
2022-11-13T01:01:06.767Z,12.50
2022-11-13T01:03:34.800Z,12.50
2022-11-13T01:06:08.999Z,12.50
2022-11-13T01:08:36.461Z,12.50
2022-11-13T01:11:10.599Z,12.50
2022-11-13T01:13:39.075Z,12.50
2022-11-13T01:16:08.963Z,12.50
2022-11-13T01:18:36.746Z,12.50
2022-11-13T01:21:05.413Z,12.50
2022-11-13T01:23:33.471Z,12.50
2022-11-13T01:26:13.909Z,12.50
2022-11-13T01:28:42.694Z,12.50
2022-11-13T01:31:13.287Z,12.50
2022-11-13T01:33:40.872Z,12.50
2022-11-13T01:36:14.345Z,12.50
2022-11-13T01:38:42.106Z,12.50
2022-11-13T01:41:21.829Z,12.50
2022-11-13T01:43:52.167Z,12.50
2022-11-13T01:46:32.797Z,12.50
2022-11-13T01:49:09.303Z,12.60
2022-11-13T01:51:41.299Z,12.60
2022-11-13T01:54:17.160Z,12.60
2022-11-13T01:56:44.875Z,12.60
2022-11-13T01:59:25.653Z,12.60
2022-11-13T02:01:54.911Z,12.60
2022-11-13T02:04:23.088Z,12.60
2022-11-13T02:06:57.559Z,12.50
2022-11-13T02:09:28.968Z,12.50
2022-11-13T02:11:56.755Z,12.60
2022-11-13T02:14:27.663Z,12.50
2022-11-13T02:16:59.178Z,12.50
2022-11-13T02:19:31.572Z,12.60
2022-11-13T02:22:43.396Z,12.60
2022-11-13T02:25:11.776Z,12.50
2022-11-13T02:27:44.176Z,12.50
2022-11-13T02:30:23.715Z,12.60
2022-11-13T02:32:55.576Z,12.60
2022-11-13T02:35:25.621Z,12.60
2022-11-13T02:37:54.809Z,12.60
2022-11-13T02:40:22.349Z,12.60
2022-11-13T02:42:49.689Z,12.60
2022-11-13T02:45:17.204Z,12.60
2022-11-13T02:47:44.640Z,12.60
2022-11-13T02:50:12.514Z,12.60
2022-11-13T02:52:40.011Z,12.60
2022-11-13T02:55:07.831Z,12.60
2022-11-13T02:57:35.247Z,12.60
2022-11-13T03:00:02.836Z,12.60
2022-11-13T03:02:30.374Z,12.60
2022-11-13T03:05:14.036Z,12.60
2022-11-13T03:07:42.295Z,12.60
2022-11-13T03:10:10.766Z,12.50
2022-11-13T03:12:38.736Z,12.60
2022-11-13T03:15:07.734Z,12.60
2022-11-13T03:17:35.593Z,12.60
2022-11-13T03:20:03.982Z,12.60
2022-11-13T03:22:31.402Z,12.60
2022-11-13T03:24:58.927Z,12.60
2022-11-13T03:27:26.288Z,12.60
2022-11-13T03:29:53.639Z,12.60
2022-11-13T03:32:21.042Z,12.60
2022-11-13T03:34:48.404Z,12.60
2022-11-13T03:37:15.812Z,12.60
2022-11-13T03:39:43.168Z,12.60
2022-11-13T03:42:10.579Z,12.60
2022-11-13T03:44:37.925Z,12.60
2022-11-13T03:47:05.285Z,12.60
2022-11-13T03:49:32.619Z,12.60
2022-11-13T03:51:59.944Z,12.60
2022-11-13T03:54:27.449Z,12.70
2022-11-13T03:56:54.885Z,12.70
2022-11-13T03:59:22.265Z,12.70
2022-11-13T04:01:49.695Z,12.70
2022-11-13T04:04:17.242Z,12.70
2022-11-13T04:06:44.658Z,12.70
2022-11-13T04:09:12.313Z,12.70
2022-11-13T04:11:39.608Z,12.70
2022-11-13T04:14:06.983Z,12.70
2022-11-13T04:16:34.352Z,12.70
2022-11-13T04:19:01.838Z,12.70
2022-11-13T04:21:29.336Z,12.70
2022-11-13T04:23:56.790Z,12.70
2022-11-13T04:26:24.160Z,12.70
2022-11-13T04:28:51.534Z,12.80
2022-11-13T04:31:18.956Z,12.70
2022-11-13T04:33:46.371Z,12.70
2022-11-13T04:36:13.875Z,12.70
2022-11-13T04:38:41.191Z,12.80
2022-11-13T04:41:27.037Z,12.70
2022-11-13T04:43:54.354Z,12.80
2022-11-13T04:46:21.683Z,12.70
2022-11-13T04:48:49.034Z,12.70
2022-11-13T04:51:16.449Z,12.70
2022-11-13T04:53:43.829Z,12.70
2022-11-13T04:56:11.166Z,12.70
2022-11-13T04:58:38.567Z,12.70
2022-11-13T05:01:06.025Z,12.70
2022-11-13T05:03:33.495Z,12.60
2022-11-13T05:06:09.039Z,12.60
2022-11-13T05:08:36.730Z,12.60
2022-11-13T05:11:04.643Z,12.60
2022-11-13T05:13:34.334Z,12.60
2022-11-13T05:16:07.259Z,12.60
2022-11-13T05:18:36.500Z,12.60
2022-11-13T05:21:05.507Z,12.60
2022-11-13T05:23:33.559Z,12.60
2022-11-13T05:26:09.882Z,12.50
2022-11-13T05:28:37.960Z,12.50
2022-11-13T05:31:09.576Z,12.40
2022-11-13T05:33:38.231Z,12.40
2022-11-13T05:36:08.423Z,12.40
2022-11-13T05:38:36.350Z,12.30
2022-11-13T05:41:07.827Z,12.30
2022-11-13T05:43:36.054Z,12.40
2022-11-13T05:46:04.790Z,12.40
2022-11-13T05:48:32.767Z,12.30
2022-11-13T05:51:09.073Z,12.40
2022-11-13T05:53:37.394Z,12.30
2022-11-13T05:56:07.175Z,12.30
2022-11-13T05:58:35.081Z,12.30
2022-11-13T06:01:10.265Z,12.30
2022-11-13T06:03:38.559Z,12.30
2022-11-13T06:06:08.051Z,12.30
2022-11-13T06:08:36.126Z,12.30
2022-11-13T06:11:06.563Z,12.30
2022-11-13T06:13:34.636Z,12.20
2022-11-13T06:16:04.637Z,12.30
2022-11-13T06:18:32.587Z,12.30
2022-11-13T06:21:08.417Z,12.30
2022-11-13T06:23:37.686Z,12.20
2022-11-13T06:26:10.902Z,12.20
2022-11-13T06:28:39.077Z,12.20
2022-11-13T06:31:11.976Z,12.10
2022-11-13T06:33:40.215Z,12.10
2022-11-13T06:36:22.801Z,12.10
2022-11-13T06:38:50.735Z,12.00
2022-11-13T06:41:21.281Z,12.00
2022-11-13T06:43:49.488Z,12.00
2022-11-13T06:46:19.756Z,12.00
2022-11-13T06:48:47.570Z,12.00
2022-11-13T06:51:23.874Z,12.00
2022-11-13T06:53:51.682Z,12.00
2022-11-13T06:56:19.815Z,12.00
2022-11-13T06:58:47.491Z,12.00
2022-11-13T07:01:20.452Z,12.00
2022-11-13T07:03:48.118Z,12.00
2022-11-13T07:06:18.730Z,11.90
2022-11-13T07:08:46.986Z,12.00
2022-11-13T07:11:16.763Z,11.90
2022-11-13T07:13:44.500Z,12.00
2022-11-13T07:16:17.529Z,11.90
2022-11-13T07:18:53.214Z,11.90
2022-11-13T07:21:21.768Z,12.00
2022-11-13T07:23:50.179Z,11.90
2022-11-13T07:26:18.721Z,11.90
2022-11-13T07:28:49.049Z,11.90
2022-11-13T07:31:17.591Z,11.90
2022-11-13T07:33:47.482Z,11.80
2022-11-13T07:36:14.992Z,11.80
2022-11-13T07:38:42.425Z,11.90
2022-11-13T07:41:09.816Z,12.10
2022-11-13T07:43:37.465Z,12.10
2022-11-13T07:46:04.881Z,12.00
2022-11-13T07:48:32.548Z,11.90
2022-11-13T07:51:01.806Z,11.80
2022-11-13T07:53:29.803Z,11.80
2022-11-13T07:56:01.129Z,11.80
2022-11-13T07:58:28.876Z,11.80
2022-11-13T08:01:04.682Z,11.80
2022-11-13T08:03:32.856Z,11.70
2022-11-13T08:06:05.600Z,11.80
2022-11-13T08:08:33.906Z,11.80
2022-11-13T08:11:06.682Z,11.80
2022-11-13T08:13:34.778Z,11.70
2022-11-13T08:16:03.684Z,11.80
2022-11-13T08:18:31.932Z,11.80
2022-11-13T08:21:02.843Z,11.80
2022-11-13T08:23:31.030Z,11.80
2022-11-13T08:25:58.414Z,11.80
2022-11-13T08:28:25.934Z,11.80
2022-11-13T08:30:53.696Z,11.90
2022-11-13T08:33:21.083Z,11.90
2022-11-13T08:35:59.318Z,11.80
2022-11-13T08:38:27.365Z,11.70
2022-11-13T08:41:01.206Z,11.70
2022-11-13T08:43:31.183Z,11.80
2022-11-13T08:45:58.663Z,11.90
2022-11-13T08:48:26.187Z,11.90
2022-11-13T08:50:56.011Z,11.90
2022-11-13T08:53:24.525Z,11.90
2022-11-13T08:55:52.206Z,11.90
2022-11-13T08:58:19.843Z,12.00
2022-11-13T09:00:47.357Z,11.90
2022-11-13T09:03:14.796Z,11.90
2022-11-13T09:05:42.200Z,11.80
2022-11-13T09:08:10.699Z,11.80
2022-11-13T09:10:38.115Z,11.80
2022-11-13T09:13:08.582Z,11.90
2022-11-13T09:15:38.142Z,11.80
2022-11-13T09:18:06.046Z,11.80
2022-11-13T09:20:33.919Z,11.80
2022-11-13T09:23:06.746Z,11.80
2022-11-13T09:25:37.923Z,11.80
2022-11-13T09:28:06.641Z,11.80
2022-11-13T09:30:34.458Z,11.80
2022-11-13T09:33:02.222Z,11.80
2022-11-13T09:35:36.948Z,11.70
2022-11-13T09:38:11.495Z,11.70
2022-11-13T09:40:58.769Z,11.70
2022-11-13T09:43:37.175Z,11.60
2022-11-13T09:46:43.379Z,11.60
2022-11-13T09:49:31.034Z,11.60
2022-11-13T09:52:06.613Z,11.60
2022-11-13T09:54:34.296Z,11.60
2022-11-13T09:57:31.120Z,11.70
2022-11-13T10:00:11.750Z,11.70
2022-11-13T10:02:56.893Z,11.70
2022-11-13T10:06:00.513Z,11.60
2022-11-13T10:08:30.336Z,11.60
2022-11-13T10:11:35.023Z,11.60
2022-11-13T10:14:19.274Z,11.70
2022-11-13T10:17:08.522Z,11.70
2022-11-13T10:20:05.550Z,11.70
2022-11-13T10:22:58.747Z,11.80
2022-11-13T10:25:33.944Z,11.80
2022-11-13T10:28:28.293Z,11.90
2022-11-13T10:30:56.116Z,12.00
2022-11-13T10:33:23.952Z,12.10
2022-11-13T10:36:17.224Z,12.10
2022-11-13T10:38:50.283Z,12.20
2022-11-13T10:41:20.693Z,12.20
2022-11-13T10:43:54.072Z,12.10
2022-11-13T10:46:26.804Z,12.10
2022-11-13T10:48:54.163Z,12.00
2022-11-13T10:51:30.112Z,12.10
2022-11-13T10:53:58.871Z,12.10
2022-11-13T10:56:31.976Z,12.00
2022-11-13T10:59:09.294Z,12.10
2022-11-13T11:01:36.993Z,12.10
2022-11-13T11:04:06.286Z,12.10
2022-11-13T11:07:12.789Z,12.10
2022-11-13T11:09:29.810Z,12.10
2022-11-13T11:12:16.802Z,12.20
2022-11-13T11:14:59.333Z,12.20
2022-11-13T11:17:41.741Z,12.20
2022-11-13T11:20:44.985Z,12.30
2022-11-13T11:23:32.692Z,12.30
2022-11-13T11:26:05.627Z,12.40
2022-11-13T11:29:06.749Z,12.40
2022-11-13T11:31:58.645Z,12.40
2022-11-13T11:34:42.026Z,12.40
2022-11-13T11:37:14.590Z,12.40
2022-11-13T11:40:08.031Z,12.40
2022-11-13T11:42:54.110Z,12.40
2022-11-13T11:45:21.481Z,12.40
2022-11-13T11:47:49.481Z,12.50
2022-11-13T11:50:23.493Z,12.60
2022-11-13T11:52:59.887Z,12.60
2022-11-13T11:55:35.289Z,12.60
2022-11-13T11:58:18.303Z,12.70
2022-11-13T12:00:56.654Z,12.80
2022-11-13T12:03:32.583Z,12.80
2022-11-13T12:06:11.943Z,12.70
2022-11-13T12:08:46.141Z,12.70
2022-11-13T12:11:19.314Z,12.80
2022-11-13T12:13:55.210Z,12.80
2022-11-13T12:16:38.215Z,12.80
2022-11-13T12:19:34.615Z,12.80
2022-11-13T12:22:43.700Z,12.80
2022-11-13T12:25:17.994Z,12.80
2022-11-13T12:28:10.686Z,12.90
2022-11-13T12:31:00.474Z,12.90
2022-11-13T12:33:45.741Z,12.90
2022-11-13T12:36:14.029Z,12.90
2022-11-13T12:39:07.351Z,12.90
2022-11-13T12:41:43.798Z,13.00
2022-11-13T12:44:24.611Z,13.10
2022-11-13T12:46:54.418Z,13.10
2022-11-13T12:49:32.971Z,13.20
2022-11-13T12:52:03.630Z,13.20
2022-11-13T12:54:36.503Z,13.20
2022-11-13T12:57:12.754Z,13.20
2022-11-13T12:59:55.603Z,13.30
2022-11-13T13:03:03.062Z,13.40
2022-11-13T13:05:33.572Z,13.50
2022-11-13T13:08:08.633Z,13.60
2022-11-13T13:10:48.840Z,13.60
2022-11-13T13:13:38.410Z,13.70
2022-11-13T13:16:08.712Z,13.80
2022-11-13T13:18:40.613Z,13.90
2022-11-13T13:21:13.961Z,14.10
2022-11-13T13:23:44.458Z,14.50
2022-11-13T13:26:25.365Z,14.80
2022-11-13T13:29:16.622Z,15.10
2022-11-13T13:31:53.126Z,15.00
2022-11-13T13:34:38.590Z,14.90
2022-11-13T13:37:29.756Z,14.70
2022-11-13T13:40:15.399Z,14.50
2022-11-13T13:43:11.941Z,14.30
2022-11-13T13:46:13.171Z,14.20
2022-11-13T13:48:41.926Z,14.10
2022-11-13T13:51:28.886Z,14.00
2022-11-13T13:53:59.227Z,14.00
2022-11-13T13:56:27.020Z,13.90
2022-11-13T13:58:54.965Z,13.90
2022-11-13T14:01:35.455Z,13.90
2022-11-13T14:04:12.912Z,13.90
2022-11-13T14:06:58.106Z,13.80
2022-11-13T14:09:27.343Z,13.80
2022-11-13T14:12:09.079Z,13.70
2022-11-13T14:14:40.025Z,13.70
2022-11-13T14:17:10.598Z,13.70
2022-11-13T14:19:38.941Z,13.70
2022-11-13T14:22:10.472Z,13.60
2022-11-13T14:25:00.511Z,13.60
2022-11-13T14:27:29.068Z,13.60
2022-11-13T14:30:02.161Z,13.50
2022-11-13T14:32:33.747Z,13.50
2022-11-13T14:35:04.991Z,13.40
2022-11-13T14:37:38.539Z,13.40
2022-11-13T14:40:25.002Z,13.30
2022-11-13T14:42:58.606Z,13.30
2022-11-13T14:45:32.093Z,13.30
2022-11-13T14:48:24.548Z,13.30
2022-11-13T14:51:03.483Z,13.20
2022-11-13T14:53:39.730Z,13.20
2022-11-13T14:56:09.688Z,13.20
2022-11-13T14:58:47.105Z,13.30
2022-11-13T15:01:19.374Z,13.30
2022-11-13T15:03:49.034Z,13.30
2022-11-13T15:06:20.079Z,13.30
2022-11-13T15:08:48.046Z,13.30
2022-11-13T15:11:17.639Z,13.30
2022-11-13T15:13:45.860Z,13.30
2022-11-13T15:16:17.045Z,13.30
2022-11-13T15:18:52.959Z,13.30
2022-11-13T15:21:20.502Z,13.30
2022-11-13T15:23:47.856Z,13.30
2022-11-13T15:26:15.239Z,13.30
2022-11-13T15:28:42.571Z,13.20
2022-11-13T15:31:23.174Z,13.20
2022-11-13T15:33:50.662Z,13.10
2022-11-13T15:36:18.018Z,13.10
2022-11-13T15:38:45.363Z,13.00
2022-11-13T15:41:15.543Z,13.00
2022-11-13T15:43:49.196Z,13.00
2022-11-13T15:46:18.577Z,13.00
2022-11-13T15:48:46.879Z,12.90
2022-11-13T15:51:31.881Z,12.90
2022-11-13T15:54:11.752Z,12.90
2022-11-13T15:56:39.198Z,12.90
2022-11-13T15:59:06.698Z,12.80
2022-11-13T16:01:34.258Z,12.80
2022-11-13T16:04:02.650Z,12.80
2022-11-13T16:06:31.192Z,12.80
2022-11-13T16:08:58.603Z,12.70
2022-11-13T16:11:25.986Z,12.70
2022-11-13T16:13:53.358Z,12.70
2022-11-13T16:16:23.800Z,12.70
2022-11-13T16:18:55.812Z,12.70
2022-11-13T16:21:26.275Z,12.70
2022-11-13T16:23:54.097Z,12.70
2022-11-13T16:26:26.312Z,12.70
2022-11-13T16:31:42.095Z,12.70
2022-11-13T16:34:09.519Z,12.70
2022-11-13T16:36:37.328Z,12.70
2022-11-13T16:39:05.853Z,12.70
2022-11-13T16:41:33.438Z,12.70
2022-11-13T16:44:00.787Z,12.60
2022-11-13T16:46:37.277Z,12.60
2022-11-13T16:49:04.640Z,12.60
2022-11-13T16:51:32.014Z,12.60
2022-11-13T16:53:59.435Z,12.60
2022-11-13T16:56:29.222Z,12.60
2022-11-13T16:58:58.072Z,12.60
2022-11-13T17:01:26.241Z,12.70
2022-11-13T17:03:53.690Z,12.70
2022-11-13T17:06:29.772Z,12.70
2022-11-13T17:08:59.290Z,12.80
2022-11-13T17:11:29.067Z,12.90
2022-11-13T17:13:59.857Z,12.80
2022-11-13T17:16:29.269Z,12.80
2022-11-13T17:18:57.979Z,12.70
2022-11-13T17:21:27.554Z,12.70
2022-11-13T17:23:55.964Z,12.70
2022-11-13T17:26:23.951Z,12.70
2022-11-13T17:28:52.067Z,12.70
2022-11-13T17:31:19.845Z,12.70
2022-11-13T17:33:47.587Z,12.70
2022-11-13T17:36:15.147Z,12.70
2022-11-13T17:38:42.634Z,12.70
2022-11-13T17:41:12.169Z,12.70
2022-11-13T17:43:40.830Z,12.70
2022-11-13T17:46:16.826Z,12.70
2022-11-13T17:48:44.742Z,12.70
2022-11-13T17:51:14.394Z,12.60
2022-11-13T17:53:42.133Z,12.60
2022-11-13T17:56:11.854Z,12.60
2022-11-13T17:58:41.106Z,12.50
2022-11-13T18:01:19.326Z,12.50
2022-11-13T18:03:48.566Z,12.50
2022-11-13T18:06:19.693Z,12.50
2022-11-13T18:08:48.001Z,12.40
2022-11-13T18:11:19.388Z,12.40
2022-11-13T18:13:48.091Z,12.40
2022-11-13T18:16:25.573Z,12.40
2022-11-13T18:18:55.867Z,12.40
2022-11-13T18:21:27.932Z,12.50
2022-11-13T18:24:00.100Z,12.40
2022-11-13T18:26:29.354Z,12.30
2022-11-13T18:28:57.594Z,12.40
2022-11-13T18:31:25.210Z,12.40
2022-11-13T18:33:52.910Z,12.40
2022-11-13T18:36:20.283Z,12.30
2022-11-13T18:38:47.697Z,12.30
2022-11-13T18:41:17.860Z,12.30
2022-11-13T18:43:47.104Z,12.30
2022-11-13T18:46:16.939Z,12.20
2022-11-13T18:48:45.555Z,12.20
2022-11-13T18:51:24.777Z,12.10
2022-11-13T18:53:53.057Z,12.10
2022-11-13T18:56:32.182Z,12.10
2022-11-13T18:59:00.126Z,12.10
2022-11-13T19:01:31.064Z,12.10
2022-11-13T19:06:52.769Z,12.10
2022-11-13T19:09:20.755Z,12.10
2022-11-13T19:11:48.271Z,12.20
2022-11-13T19:14:17.244Z,12.20
2022-11-13T19:16:45.182Z,12.20
2022-11-13T19:19:21.676Z,12.20
2022-11-13T19:21:49.401Z,12.20
2022-11-13T19:24:17.548Z,12.20
2022-11-13T19:26:45.931Z,12.20
2022-11-13T19:29:13.859Z,12.20
2022-11-13T19:31:41.727Z,12.20
2022-11-13T19:34:10.461Z,12.20
2022-11-13T19:36:38.166Z,12.20
2022-11-13T19:39:05.549Z,12.20
2022-11-13T19:41:33.254Z,12.20
2022-11-13T19:44:00.668Z,12.20
2022-11-13T19:46:29.688Z,12.30
2022-11-13T19:48:57.146Z,12.20
2022-11-13T19:51:26.243Z,12.20
2022-11-13T19:53:55.692Z,12.20
2022-11-13T19:56:24.107Z,12.20
2022-11-13T19:58:52.792Z,12.20
2022-11-13T20:01:25.910Z,12.20
2022-11-13T20:03:55.319Z,12.20
2022-11-13T20:06:23.151Z,12.10
2022-11-13T20:08:50.554Z,12.10
2022-11-13T20:11:18.002Z,12.10
2022-11-13T20:13:46.340Z,12.10
2022-11-13T20:16:15.523Z,12.10
2022-11-13T20:18:43.892Z,12.10
2022-11-13T20:21:11.341Z,12.10
2022-11-13T20:23:39.313Z,12.20
2022-11-13T20:26:13.607Z,12.10
2022-11-13T20:28:40.992Z,12.10
2022-11-13T20:31:20.133Z,12.10
2022-11-13T20:33:54.133Z,12.10
2022-11-13T20:36:22.639Z,12.10
2022-11-13T20:38:52.532Z,12.00
2022-11-13T20:41:24.139Z,12.00
2022-11-13T20:43:52.991Z,11.90
2022-11-13T20:46:21.467Z,11.90
2022-11-13T20:48:49.137Z,11.90
2022-11-13T20:51:25.283Z,11.90
2022-11-13T20:53:53.833Z,11.80
2022-11-13T20:56:23.469Z,11.80
2022-11-13T20:58:51.051Z,11.80
2022-11-13T21:01:25.297Z,11.80
2022-11-13T21:03:53.562Z,11.80
2022-11-13T21:06:22.954Z,11.80
2022-11-13T21:08:53.450Z,11.80
2022-11-13T21:11:22.181Z,11.70
2022-11-13T21:13:49.984Z,11.70
2022-11-13T21:16:18.221Z,11.70
2022-11-13T21:18:46.361Z,11.70
2022-11-13T21:21:16.495Z,11.60
2022-11-13T21:23:43.867Z,11.70
2022-11-13T21:26:11.330Z,11.70
2022-11-13T21:28:39.304Z,11.70
2022-11-13T21:31:13.068Z,11.60
2022-11-13T21:33:42.006Z,11.60
2022-11-13T21:36:15.243Z,11.60
2022-11-13T21:38:43.306Z,11.60
2022-11-13T21:41:21.974Z,11.60
2022-11-13T21:44:00.379Z,11.60
2022-11-13T21:46:30.363Z,11.50
2022-11-13T21:49:06.090Z,11.60
2022-11-13T21:51:35.713Z,11.60
2022-11-13T21:54:03.288Z,11.60
2022-11-13T21:56:34.067Z,11.50
2022-11-13T21:59:01.474Z,11.50
2022-11-13T22:01:36.505Z,11.50
2022-11-13T22:04:05.739Z,11.40
2022-11-13T22:06:36.286Z,11.40
2022-11-13T22:09:12.304Z,11.40
2022-11-13T22:11:39.871Z,11.40
2022-11-13T22:14:07.537Z,11.40
2022-11-13T22:16:37.387Z,11.40
2022-11-13T22:19:07.139Z,11.40
2022-11-13T22:21:35.402Z,11.40
2022-11-13T22:24:03.152Z,11.40
2022-11-13T22:26:31.738Z,11.40
2022-11-13T22:29:00.245Z,11.40
2022-11-13T22:31:29.619Z,11.30
2022-11-13T22:33:58.004Z,11.30
2022-11-13T22:36:28.115Z,11.30
2022-11-13T22:38:55.942Z,11.30
2022-11-13T22:41:31.490Z,11.30
2022-11-13T22:44:01.338Z,11.30
2022-11-13T22:46:30.803Z,11.30
2022-11-13T22:49:01.636Z,11.30
2022-11-13T22:51:31.730Z,11.30
2022-11-13T22:54:05.113Z,11.30
2022-11-13T22:56:33.860Z,11.30
2022-11-13T22:59:03.222Z,11.30
2022-11-13T23:01:33.553Z,11.20
2022-11-13T23:04:03.738Z,11.30
2022-11-13T23:06:33.263Z,11.30
2022-11-13T23:09:01.208Z,11.30
2022-11-13T23:11:34.986Z,11.20
2022-11-13T23:14:04.201Z,11.20
2022-11-13T23:16:33.059Z,11.10
2022-11-13T23:19:01.411Z,11.10
2022-11-13T23:21:29.601Z,11.10
2022-11-13T23:23:57.729Z,11.10
2022-11-13T23:26:25.764Z,11.20
2022-11-13T23:28:53.991Z,11.20
2022-11-13T23:31:21.845Z,11.20
2022-11-13T23:33:49.646Z,11.20
2022-11-13T23:36:18.212Z,11.30
2022-11-13T23:38:45.702Z,11.30
2022-11-13T23:41:13.265Z,11.20
2022-11-13T23:44:07.524Z,11.20
2022-11-13T23:46:28.011Z,11.20
2022-11-13T23:48:55.486Z,11.20
2022-11-13T23:51:22.958Z,11.10
2022-11-13T23:53:50.362Z,11.10
2022-11-13T23:56:17.663Z,11.10
2022-11-13T23:58:45.104Z,11.10
